Time;durP1;ratioP1;P1;durP2;ratioP2;P2;SDS_P1;SDS_P2;PMS_P1;PMS_P2;Temp;Humidity;BMP_temperature;BMP_pressure;BME280_temperature;BME280_humidity;BME280_pressure;Samples;Min_cycle;Max_cycle;Signal;HPM_P1;HPM_P2
2023/07/21 04:02:18;;;;;;;0.77;0.77;;;14.10;99.90;;;;;;5061189;23;20573;-70
2023/07/21 04:04:45;;;;;;;1.17;1.07;;;14.20;99.90;;;;;;4916402;29;20477;-70
2023/07/21 04:07:12;;;;;;;0.70;0.70;;;14.20;99.90;;;;;;4916517;29;20463;-70
2023/07/21 04:09:39;;;;;;;0.67;0.67;;;14.10;99.90;;;;;;4916406;29;20466;-70
2023/07/21 04:12:06;;;;;;;1.03;1.03;;;14.10;99.90;;;;;;4901372;29;20521;-70
2023/07/21 04:14:33;;;;;;;3.40;1.10;;;14.10;99.90;;;;;;4896473;29;20507;-70
2023/07/21 04:16:59;;;;;;;1.33;1.20;;;14.10;99.90;;;;;;4898316;29;20858;-72
2023/07/21 04:19:28;;;;;;;0.67;0.67;;;14.20;99.90;;;;;;4897559;29;20641;-72
2023/07/21 04:21:55;;;;;;;0.67;0.67;;;14.20;99.90;;;;;;4897515;29;20487;-72
2023/07/21 04:24:21;;;;;;;7.10;1.07;;;14.20;99.90;;;;;;4897122;29;20479;-72
2023/07/21 04:26:48;;;;;;;1.00;1.00;;;14.20;99.90;;;;;;4897364;29;20527;-73
2023/07/21 04:29:15;;;;;;;1.23;1.23;;;14.20;99.90;;;;;;4896392;29;20467;-72
2023/07/21 04:31:41;;;;;;;0.93;0.93;;;14.30;99.90;;;;;;4897142;29;20513;-72
2023/07/21 04:34:07;;;;;;;0.67;0.67;;;14.40;99.90;;;;;;4896966;29;21012;-72
2023/07/21 04:36:36;;;;;;;0.93;0.93;;;14.40;99.90;;;;;;4897111;29;20471;-72
2023/07/21 04:39:02;;;;;;;1.77;1.67;;;14.40;99.90;;;;;;4891237;29;20310;-71
2023/07/21 04:41:29;;;;;;;0.80;0.80;;;14.40;99.90;;;;;;4896476;29;20494;-72
2023/07/21 04:43:56;;;;;;;0.60;0.60;;;14.40;99.90;;;;;;4897042;29;20535;-72
2023/07/21 04:46:22;;;;;;;1.20;1.20;;;14.30;99.90;;;;;;4896419;29;20473;-72
2023/07/21 04:48:49;;;;;;;0.80;0.80;;;14.30;99.90;;;;;;4897115;29;20463;-72
2023/07/21 04:51:16;;;;;;;1.40;1.40;;;14.20;99.90;;;;;;4896570;29;21022;-72
2023/07/21 04:53:44;;;;;;;1.03;0.90;;;14.20;99.90;;;;;;4896806;29;20879;-72
2023/07/21 04:56:12;;;;;;;0.63;0.63;;;14.30;99.90;;;;;;4896623;29;20843;-72
2023/07/21 04:58:39;;;;;;;1.10;1.10;;;14.40;99.90;;;;;;4897420;29;20478;-72
2023/07/21 05:01:06;;;;;;;1.37;1.27;;;14.50;99.90;;;;;;4896167;29;20495;-72
2023/07/21 05:03:33;;;;;;;0.83;0.50;;;14.50;99.90;;;;;;4897176;29;20471;-73
2023/07/21 05:05:59;;;;;;;0.93;0.93;;;14.50;99.90;;;;;;4896838;29;20467;-72
2023/07/21 05:08:26;;;;;;;0.80;0.80;;;14.50;99.90;;;;;;4896980;29;20471;-73
2023/07/21 05:10:55;;;;;;;1.20;1.20;;;14.50;99.90;;;;;;4896523;29;20566;-72
2023/07/21 05:13:22;;;;;;;1.47;1.20;;;14.50;99.90;;;;;;4897372;29;20493;-71
2023/07/21 05:15:50;;;;;;;1.00;1.00;;;14.50;99.90;;;;;;4896064;29;20474;-73
2023/07/21 05:18:17;;;;;;;0.87;0.87;;;14.50;99.90;;;;;;4896877;29;20811;-73
2023/07/21 05:20:44;;;;;;;1.10;1.10;;;14.50;99.90;;;;;;4896411;29;20506;-71
2023/07/21 05:23:11;;;;;;;1.47;1.37;;;14.60;99.90;;;;;;4896437;29;20471;-70
2023/07/21 05:25:38;;;;;;;1.03;0.77;;;14.60;99.90;;;;;;4896446;29;20472;-72
2023/07/21 05:28:06;;;;;;;0.93;0.93;;;14.60;99.90;;;;;;4896846;29;20471;-71
2023/07/21 05:30:34;;;;;;;0.60;0.60;;;14.60;99.90;;;;;;4895784;29;20546;-71
2023/07/21 05:33:00;;;;;;;0.70;0.70;;;14.70;99.90;;;;;;4896662;29;20894;-71
2023/07/21 05:35:28;;;;;;;0.87;0.87;;;14.70;99.90;;;;;;4896003;29;20471;-71
2023/07/21 05:37:55;;;;;;;0.73;0.73;;;14.70;99.90;;;;;;4897006;29;20558;-72
2023/07/21 05:40:22;;;;;;;2.80;2.00;;;14.70;99.90;;;;;;4902626;29;20609;-71
2023/07/21 05:42:49;;;;;;;2.37;1.70;;;14.70;99.90;;;;;;4901067;29;20480;-72
2023/07/21 05:45:17;;;;;;;1.23;1.23;;;14.70;99.90;;;;;;4895080;29;20471;-71
2023/07/21 05:47:44;;;;;;;1.30;1.30;;;14.80;99.90;;;;;;4896133;29;20494;-71
2023/07/21 05:50:11;;;;;;;0.40;0.40;;;14.80;99.90;;;;;;4895753;29;20478;-71
2023/07/21 05:52:38;;;;;;;0.50;0.50;;;14.80;99.90;;;;;;4895703;29;20467;-71
2023/07/21 05:55:05;;;;;;;1.30;1.30;;;14.90;99.90;;;;;;4895113;29;20847;-71
2023/07/21 05:57:32;;;;;;;0.83;0.83;;;14.90;99.90;;;;;;4895341;29;20467;-72
2023/07/21 05:59:59;;;;;;;0.80;0.80;;;14.90;99.90;;;;;;4894602;29;20543;-72
2023/07/21 06:02:27;;;;;;;1.43;1.43;;;15.00;99.90;;;;;;4894965;29;20559;-70
2023/07/21 06:04:56;;;;;;;1.93;1.60;;;15.10;99.90;;;;;;4893964;29;20479;-68
2023/07/21 06:07:23;;;;;;;1.23;1.23;;;15.10;99.90;;;;;;4895541;29;20479;-72
2023/07/21 06:09:50;;;;;;;0.60;0.60;;;15.20;99.90;;;;;;4895541;29;20884;-71
2023/07/21 06:12:17;;;;;;;3.27;1.27;;;15.20;99.90;;;;;;4895478;29;20514;-71
2023/07/21 06:14:44;;;;;;;1.40;1.40;;;15.30;99.90;;;;;;4894318;29;20958;-71
2023/07/21 06:17:10;;;;;;;1.33;1.33;;;15.20;99.90;;;;;;4895900;29;20471;-71
2023/07/21 06:19:38;;;;;;;1.03;0.80;;;15.10;99.90;;;;;;4895034;29;20478;-71
2023/07/21 06:22:06;;;;;;;1.90;0.80;;;15.10;99.90;;;;;;4895065;29;20506;-71
2023/07/21 06:24:32;;;;;;;0.90;0.90;;;15.20;99.90;;;;;;4894871;29;20542;-71
2023/07/21 06:26:59;;;;;;;2.87;1.10;;;15.30;99.90;;;;;;4895342;29;20519;-72
2023/07/21 06:29:26;;;;;;;1.70;1.70;;;15.30;99.90;;;;;;4894497;29;20490;-72
2023/07/21 06:31:53;;;;;;;0.90;0.90;;;15.30;99.90;;;;;;4894900;29;20490;-71
2023/07/21 06:34:22;;;;;;;1.20;1.20;;;15.30;99.90;;;;;;4894421;29;20467;-72
2023/07/21 06:36:50;;;;;;;1.53;1.53;;;15.30;99.90;;;;;;4895199;29;20469;-71
2023/07/21 06:39:17;;;;;;;1.37;0.87;;;15.30;99.90;;;;;;4897625;29;20470;-73
2023/07/21 06:41:44;;;;;;;0.97;0.97;;;15.40;99.90;;;;;;4905598;29;21034;-72
2023/07/21 06:44:11;;;;;;;0.70;0.70;;;15.40;99.90;;;;;;4913404;29;20546;-70
2023/07/21 06:46:38;;;;;;;1.23;1.13;;;15.40;99.90;;;;;;4913148;29;20466;-73
2023/07/21 06:49:05;;;;;;;1.03;1.03;;;15.50;99.90;;;;;;4913655;29;20484;-71
2023/07/21 06:51:31;;;;;;;2.70;0.80;;;15.50;99.90;;;;;;4913417;29;20494;-73
2023/07/21 06:53:59;;;;;;;0.70;0.70;;;15.50;99.90;;;;;;4913470;29;20533;-73
2023/07/21 06:56:26;;;;;;;0.90;0.90;;;15.60;99.90;;;;;;4913254;29;20474;-73
2023/07/21 06:58:53;;;;;;;1.00;1.00;;;15.50;99.90;;;;;;4913856;29;20510;-71
2023/07/21 07:01:19;;;;;;;1.20;1.20;;;15.60;99.90;;;;;;4912422;29;20517;-72
2023/07/21 07:03:46;;;;;;;0.90;0.90;;;15.60;99.90;;;;;;4913310;29;20493;-72
2023/07/21 07:06:13;;;;;;;1.00;1.00;;;15.70;99.90;;;;;;4913343;29;20557;-72
2023/07/21 07:08:39;;;;;;;1.67;0.90;;;15.70;99.90;;;;;;4914025;29;20826;-72
2023/07/21 07:11:08;;;;;;;0.80;0.80;;;15.70;99.90;;;;;;4913930;29;20482;-71
2023/07/21 07:13:35;;;;;;;1.80;1.47;;;15.80;99.90;;;;;;4914011;29;20498;-72
2023/07/21 07:16:01;;;;;;;1.17;1.17;;;15.80;99.90;;;;;;4912586;29;20489;-72
2023/07/21 07:18:28;;;;;;;1.10;1.10;;;15.80;99.90;;;;;;4916977;29;20470;-72
2023/07/21 07:20:56;;;;;;;0.90;0.90;;;15.90;99.90;;;;;;4916862;29;20912;-72
2023/07/21 07:23:24;;;;;;;1.10;1.10;;;15.90;99.90;;;;;;4917351;29;20546;-72
2023/07/21 07:25:52;;;;;;;2.43;1.63;;;15.90;99.90;;;;;;4916859;29;20466;-72
2023/07/21 07:28:22;;;;;;;1.00;1.00;;;16.00;99.90;;;;;;4916997;29;20482;-72
2023/07/21 07:30:49;;;;;;;2.77;1.20;;;16.00;99.90;;;;;;4916000;29;20993;-72
2023/07/21 07:33:16;;;;;;;0.80;0.80;;;16.00;99.90;;;;;;4917049;29;20556;-71
2023/07/21 07:35:50;;;;;;;1.00;1.00;;;16.10;99.90;;;;;;4916707;29;20469;-72
2023/07/21 07:38:19;;;;;;;1.10;1.10;;;16.10;99.90;;;;;;4916822;29;20470;-72
2023/07/21 07:40:47;;;;;;;0.93;0.93;;;16.10;99.90;;;;;;4907097;29;20687;-71
2023/07/21 07:43:14;;;;;;;1.27;1.27;;;16.10;99.90;;;;;;4916649;29;20945;-72
2023/07/21 07:45:43;;;;;;;0.80;0.80;;;16.20;99.90;;;;;;4915798;29;20466;-72
2023/07/21 07:48:09;;;;;;;1.17;1.17;;;16.20;99.90;;;;;;4916492;29;20510;-72
2023/07/21 07:50:39;;;;;;;0.87;0.63;;;16.30;99.90;;;;;;4916164;29;20486;-71
2023/07/21 07:53:06;;;;;;;1.20;1.20;;;16.30;99.90;;;;;;4916734;29;20913;-71
2023/07/21 07:55:37;;;;;;;1.27;0.60;;;16.30;99.90;;;;;;4915932;29;20995;-72
2023/07/21 07:58:05;;;;;;;1.13;1.13;;;16.30;99.90;;;;;;4916746;29;20478;-72
2023/07/21 08:00:33;;;;;;;0.87;0.80;;;16.30;99.90;;;;;;4915432;29;20581;-72
2023/07/21 08:03:01;;;;;;;0.97;0.97;;;16.50;99.90;;;;;;4916539;29;20538;-71
2023/07/21 08:05:27;;;;;;;1.20;1.20;;;16.60;99.90;;;;;;4915989;29;20937;-71
2023/07/21 08:07:54;;;;;;;1.10;1.10;;;16.80;99.90;;;;;;4915880;29;20477;-71
2023/07/21 08:10:23;;;;;;;1.00;1.00;;;17.00;99.90;;;;;;4916471;29;20474;-72
2023/07/21 08:12:49;;;;;;;1.23;1.13;;;17.10;99.90;;;;;;4917394;29;20875;-72
2023/07/21 08:15:16;;;;;;;1.07;1.07;;;17.10;99.90;;;;;;4915819;29;20470;-71
2023/07/21 08:17:43;;;;;;;3.93;0.80;;;17.20;99.90;;;;;;4916310;29;20478;-71
2023/07/21 08:20:12;;;;;;;2.30;1.03;;;17.30;99.90;;;;;;4916643;29;20478;-72
2023/07/21 08:22:39;;;;;;;0.60;0.60;;;17.40;99.90;;;;;;4916261;29;20580;-70
2023/07/21 08:25:06;;;;;;;0.87;0.87;;;17.40;99.90;;;;;;4915662;29;20950;-72
2023/07/21 08:27:35;;;;;;;0.80;0.80;;;17.40;99.90;;;;;;4915459;29;20470;-72
2023/07/21 08:30:02;;;;;;;2.20;1.50;;;17.40;99.90;;;;;;4915154;29;20466;-72
2023/07/21 08:32:29;;;;;;;0.77;0.77;;;17.50;99.90;;;;;;4916743;29;20574;-72
2023/07/21 08:34:56;;;;;;;1.20;1.20;;;17.60;99.90;;;;;;4915443;29;20992;-72
2023/07/21 08:37:24;;;;;;;0.90;0.90;;;17.70;99.90;;;;;;4915968;29;20553;-72
2023/07/21 08:39:50;;;;;;;3.03;2.00;;;17.70;99.90;;;;;;4911238;29;20549;-72
2023/07/21 08:42:18;;;;;;;1.10;1.10;;;17.70;99.90;;;;;;4916084;29;20502;-70
2023/07/21 08:44:46;;;;;;;0.93;0.80;;;17.60;99.90;;;;;;4915184;29;20945;-72
2023/07/21 08:47:13;;;;;;;1.43;0.83;;;17.70;99.90;;;;;;4916144;29;20474;-72
2023/07/21 08:49:40;;;;;;;0.80;0.80;;;17.80;99.90;;;;;;4915402;29;20476;-71
2023/07/21 08:52:07;;;;;;;0.90;0.90;;;17.80;99.90;;;;;;4915848;29;20554;-71
2023/07/21 08:54:35;;;;;;;0.87;0.87;;;17.90;99.90;;;;;;4915464;29;20477;-72
2023/07/21 08:57:02;;;;;;;0.87;0.87;;;18.00;99.90;;;;;;4915745;29;20477;-71
2023/07/21 08:59:29;;;;;;;0.80;0.80;;;17.90;99.90;;;;;;4914940;29;20841;-71
2023/07/21 09:01:56;;;;;;;1.13;1.03;;;18.10;99.90;;;;;;4915333;29;20523;-69
2023/07/21 09:04:24;;;;;;;0.90;0.90;;;18.20;99.90;;;;;;4915442;29;20470;-71
2023/07/21 09:06:52;;;;;;;4.30;0.87;;;18.30;99.90;;;;;;4915205;29;20520;-71
2023/07/21 09:09:19;;;;;;;0.80;0.80;;;18.30;99.90;;;;;;4915045;29;20478;-71
2023/07/21 09:11:48;;;;;;;1.03;1.03;;;18.50;99.90;;;;;;4914891;29;20524;-70
2023/07/21 09:14:16;;;;;;;0.90;0.90;;;18.60;99.90;;;;;;4914004;29;20553;-71
2023/07/21 09:16:43;;;;;;;1.23;1.23;;;18.70;99.90;;;;;;4914909;29;20475;-71
2023/07/21 09:19:10;;;;;;;0.80;0.80;;;18.70;99.90;;;;;;4914793;29;20478;-71
2023/07/21 09:21:37;;;;;;;0.60;0.60;;;18.80;99.90;;;;;;4914756;29;20499;-71
2023/07/21 09:24:06;;;;;;;0.97;0.97;;;18.80;99.90;;;;;;4914524;29;21113;-71
2023/07/21 09:26:33;;;;;;;1.33;1.23;;;18.80;99.90;;;;;;4914445;29;20469;-71
2023/07/21 09:29:01;;;;;;;0.73;0.73;;;18.90;99.90;;;;;;4914672;29;20473;-71
2023/07/21 09:31:29;;;;;;;0.80;0.80;;;19.00;99.90;;;;;;4914019;29;20489;-71
2023/07/21 09:34:04;;;;;;;0.77;0.77;;;19.10;99.90;;;;;;4914532;29;20589;-72
2023/07/21 09:36:31;;;;;;;0.70;0.70;;;19.10;99.90;;;;;;4914286;29;20473;-72
2023/07/21 09:39:03;;;;;;;0.60;0.60;;;19.40;99.90;;;;;;4910033;29;20507;-71
2023/07/21 09:41:32;;;;;;;0.57;0.57;;;19.50;99.90;;;;;;4913800;29;20970;-72
2023/07/21 09:44:01;;;;;;;0.90;0.90;;;19.70;99.90;;;;;;4914582;29;20470;-71
2023/07/21 09:46:28;;;;;;;1.00;1.00;;;20.00;99.90;;;;;;4913596;29;20871;-71
2023/07/21 09:48:55;;;;;;;0.63;0.63;;;20.20;99.90;;;;;;4914373;29;20845;-71
2023/07/21 09:51:21;;;;;;;0.67;0.67;;;20.30;99.90;;;;;;4914175;29;20488;-71
2023/07/21 09:53:52;;;;;;;0.50;0.50;;;20.50;99.90;;;;;;4914180;29;20563;-71
2023/07/21 09:56:21;;;;;;;0.77;0.77;;;20.40;99.90;;;;;;4913859;29;20469;-71
2023/07/21 09:59:03;;;;;;;0.70;0.70;;;20.50;99.90;;;;;;4914615;29;20825;-71
2023/07/21 10:01:58;;;;;;;1.43;0.80;;;20.60;99.90;;;;;;4913317;29;20531;-70
2023/07/21 10:04:25;;;;;;;1.17;1.00;;;20.70;99.90;;;;;;4913778;29;20472;-70
2023/07/21 10:06:56;;;;;;;0.57;0.57;;;20.50;99.90;;;;;;4914202;29;20494;-71
2023/07/21 10:09:23;;;;;;;0.70;0.70;;;20.50;99.90;;;;;;4914325;29;20583;-71
2023/07/21 10:11:51;;;;;;;0.40;0.40;;;20.70;99.90;;;;;;4913828;29;20986;-70
2023/07/21 10:14:33;;;;;;;1.53;0.70;;;20.70;99.90;;;;;;4913272;29;20543;-70
2023/07/21 10:17:00;;;;;;;0.40;0.40;;;20.70;99.90;;;;;;4914171;29;20502;-69
2023/07/21 10:19:29;;;;;;;0.50;0.50;;;20.60;99.90;;;;;;4913901;29;20466;-69
2023/07/21 10:21:57;;;;;;;0.60;0.60;;;20.40;99.90;;;;;;4913716;29;20502;-69
2023/07/21 10:24:24;;;;;;;0.40;0.40;;;20.40;99.90;;;;;;4913526;29;20503;-69
2023/07/21 10:26:55;;;;;;;0.50;0.50;;;20.40;99.90;;;;;;4913707;29;20517;-69
2023/07/21 10:29:22;;;;;;;0.70;0.70;;;20.30;99.90;;;;;;4913085;29;20625;-69
2023/07/21 10:31:54;;;;;;;0.30;0.30;;;20.50;99.90;;;;;;4913574;29;20526;-69
2023/07/21 10:34:25;;;;;;;0.40;0.40;;;20.40;99.90;;;;;;4913524;29;20545;-69
2023/07/21 10:37:02;;;;;;;0.43;0.43;;;20.40;99.90;;;;;;4913972;29;20839;-69
2023/07/21 10:39:31;;;;;;;0.50;0.50;;;20.40;99.90;;;;;;4909290;29;21017;-69
2023/07/21 10:41:59;;;;;;;0.57;0.57;;;20.50;99.90;;;;;;4913320;29;20595;-69
2023/07/21 10:44:33;;;;;;;0.60;0.60;;;20.50;99.90;;;;;;4912803;29;20469;-68
2023/07/21 10:47:01;;;;;;;0.27;0.27;;;20.60;99.90;;;;;;4913580;29;20535;-69
2023/07/21 10:49:27;;;;;;;0.60;0.60;;;20.70;99.90;;;;;;4913841;29;20595;-69
2023/07/21 10:51:54;;;;;;;1.10;1.10;;;20.80;99.90;;;;;;4915952;29;20490;-69
2023/07/21 10:54:21;;;;;;;0.60;0.60;;;20.90;99.90;;;;;;4917513;29;20465;-69
2023/07/21 10:56:51;;;;;;;0.70;0.70;;;21.00;99.90;;;;;;4917409;29;20508;-69
2023/07/21 10:59:18;;;;;;;0.40;0.40;;;21.00;99.90;;;;;;4916774;29;20488;-69
2023/07/21 11:01:47;;;;;;;0.53;0.53;;;21.10;99.90;;;;;;4917233;29;20577;-69
2023/07/21 11:04:16;;;;;;;0.67;0.67;;;21.10;99.90;;;;;;4917097;29;20472;-69
2023/07/21 11:06:45;;;;;;;0.67;0.67;;;21.20;99.90;;;;;;4917404;29;20537;-69
2023/07/21 11:09:12;;;;;;;1.07;0.60;;;21.20;99.90;;;;;;4916706;29;20936;-69
2023/07/21 11:11:40;;;;;;;0.50;0.50;;;21.20;99.90;;;;;;4917305;29;20593;-69
2023/07/21 11:14:10;;;;;;;1.90;1.00;;;21.30;99.90;;;;;;4917027;29;20475;-70
2023/07/21 11:16:42;;;;;;;0.60;0.60;;;21.30;99.90;;;;;;4916939;29;20475;-69
2023/07/21 11:19:09;;;;;;;0.60;0.60;;;21.40;99.90;;;;;;4917038;29;20507;-69
2023/07/21 11:21:38;;;;;;;0.70;0.70;;;21.40;99.90;;;;;;4916546;29;20509;-69
2023/07/21 11:24:08;;;;;;;0.50;0.50;;;21.30;99.90;;;;;;4916978;29;20840;-69
2023/07/21 11:26:35;;;;;;;1.13;1.07;;;21.20;99.90;;;;;;4916856;29;20466;-69
2023/07/21 11:29:02;;;;;;;0.60;0.60;;;21.30;99.90;;;;;;4917008;29;20466;-69
2023/07/21 11:31:33;;;;;;;0.70;0.70;;;21.40;99.90;;;;;;4915762;29;20553;-69
2023/07/21 11:33:59;;;;;;;0.90;0.90;;;21.40;99.90;;;;;;4916291;29;20498;-69
2023/07/21 11:36:29;;;;;;;0.40;0.40;;;21.50;99.90;;;;;;4916229;29;20546;-69
2023/07/21 11:38:59;;;;;;;0.90;0.90;;;21.70;99.90;;;;;;4913719;29;20471;-69
2023/07/21 11:41:36;;;;;;;0.77;0.77;;;21.90;99.90;;;;;;4906378;29;20483;-69
2023/07/21 11:44:04;;;;;;;0.80;0.80;;;22.10;99.90;;;;;;4897637;29;20478;-69
2023/07/21 11:46:31;;;;;;;0.70;0.70;;;22.00;99.90;;;;;;4896549;29;20872;-69
2023/07/21 11:48:57;;;;;;;0.70;0.70;;;22.10;99.90;;;;;;4897812;29;20832;-69
2023/07/21 11:51:24;;;;;;;0.83;0.83;;;22.10;99.90;;;;;;4897613;29;20842;-69
2023/07/21 11:53:51;;;;;;;0.50;0.50;;;22.20;99.90;;;;;;4897750;29;20476;-69
2023/07/21 11:56:19;;;;;;;0.50;0.50;;;22.30;99.90;;;;;;4897690;29;20473;-69
2023/07/21 11:58:46;;;;;;;0.77;0.77;;;22.50;99.90;;;;;;4897864;29;20835;-69
2023/07/21 12:01:12;;;;;;;0.57;0.57;;;22.40;99.90;;;;;;4896725;29;20506;-68
2023/07/21 12:03:40;;;;;;;0.60;0.60;;;22.50;99.90;;;;;;4896538;29;20889;-68
2023/07/21 12:06:09;;;;;;;0.97;0.60;;;22.40;99.90;;;;;;4897260;29;20522;-68
2023/07/21 12:08:36;;;;;;;0.50;0.50;;;22.40;99.90;;;;;;4897655;29;20467;-68
2023/07/21 12:11:03;;;;;;;0.57;0.57;;;22.60;99.90;;;;;;4897107;29;20490;-67
2023/07/21 12:13:31;;;;;;;0.57;0.57;;;22.80;99.90;;;;;;4897402;29;20471;-68
2023/07/21 12:15:57;;;;;;;0.70;0.70;;;23.10;99.90;;;;;;4896268;29;20923;-67
2023/07/21 12:18:24;;;;;;;0.67;0.67;;;23.20;99.90;;;;;;4897679;29;20475;-67
2023/07/21 12:20:51;;;;;;;0.60;0.60;;;23.40;99.90;;;;;;4897349;29;20491;-67
2023/07/21 12:23:17;;;;;;;0.60;0.60;;;23.50;99.90;;;;;;4897489;29;20503;-68
2023/07/21 12:25:44;;;;;;;1.63;0.73;;;23.60;99.90;;;;;;4896986;29;20489;-69
2023/07/21 12:28:11;;;;;;;0.50;0.50;;;23.40;99.90;;;;;;4896870;29;20470;-69
2023/07/21 12:30:39;;;;;;;2.67;1.00;;;23.50;99.90;;;;;;4896441;29;20491;-69
2023/07/21 12:33:06;;;;;;;0.70;0.70;;;23.50;99.90;;;;;;4897269;29;20519;-69
2023/07/21 12:35:33;;;;;;;0.90;0.90;;;23.50;99.90;;;;;;4896909;29;20512;-69
2023/07/21 12:38:00;;;;;;;0.70;0.70;;;23.50;99.90;;;;;;4897187;29;20575;-69
2023/07/21 12:40:27;;;;;;;0.80;0.80;;;23.50;99.90;;;;;;4910078;29;20617;-69
2023/07/21 12:42:54;;;;;;;0.60;0.60;;;23.50;99.90;;;;;;4898747;29;20488;-69
2023/07/21 12:45:20;;;;;;;0.77;0.67;;;23.40;99.90;;;;;;4895996;29;20475;-69
2023/07/21 12:47:49;;;;;;;0.77;0.77;;;23.40;99.90;;;;;;4896849;29;20467;-68
2023/07/21 12:50:15;;;;;;;0.57;0.57;;;23.20;99.90;;;;;;4896422;29;20471;-69
2023/07/21 12:52:42;;;;;;;0.67;0.63;;;23.00;99.90;;;;;;4896905;29;20938;-69
2023/07/21 12:55:09;;;;;;;0.50;0.50;;;22.80;99.90;;;;;;4896422;29;20483;-69
2023/07/21 12:57:36;;;;;;;0.50;0.50;;;22.80;99.90;;;;;;4896813;29;20470;-67
2023/07/21 13:00:03;;;;;;;0.63;0.63;;;22.60;99.90;;;;;;4895899;29;20481;-67
2023/07/21 13:02:29;;;;;;;1.03;1.03;;;22.60;99.90;;;;;;4896316;29;20502;-68
2023/07/21 13:04:57;;;;;;;0.70;0.70;;;22.50;99.90;;;;;;4896360;29;20982;-68
2023/07/21 13:07:24;;;;;;;0.70;0.70;;;22.50;99.90;;;;;;4896558;29;20515;-68
2023/07/21 13:09:51;;;;;;;1.10;1.00;;;22.40;99.90;;;;;;4896244;29;20473;-68
2023/07/21 13:12:18;;;;;;;0.63;0.63;;;22.40;99.90;;;;;;4896389;29;20540;-67
2023/07/21 13:14:44;;;;;;;0.73;0.73;;;22.30;99.90;;;;;;4895228;29;20854;-68
2023/07/21 13:17:11;;;;;;;1.13;0.60;;;22.30;99.90;;;;;;4896431;29;20529;-67
2023/07/21 13:19:38;;;;;;;0.40;0.40;;;22.10;99.90;;;;;;4896188;29;20548;-68
2023/07/21 13:22:06;;;;;;;0.50;0.50;;;22.00;99.90;;;;;;4896140;29;20491;-67
2023/07/21 13:24:32;;;;;;;0.30;0.30;;;21.90;99.90;;;;;;4895775;29;20513;-68
2023/07/21 13:26:59;;;;;;;2.67;0.90;;;21.70;99.90;;;;;;4896375;29;20507;-68
2023/07/21 13:29:26;;;;;;;0.80;0.80;;;21.40;99.90;;;;;;4895756;29;20986;-67
2023/07/21 13:31:53;;;;;;;0.60;0.60;;;21.20;99.90;;;;;;4896313;29;20499;-68
2023/07/21 13:34:19;;;;;;;3.50;1.30;;;21.00;99.90;;;;;;4896123;29;20467;-68
2023/07/21 13:36:46;;;;;;;0.90;0.90;;;21.10;99.90;;;;;;4896344;29;20717;-68
2023/07/21 13:39:15;;;;;;;0.47;0.47;;;21.10;99.90;;;;;;4900110;29;20580;-67
2023/07/21 13:41:41;;;;;;;1.00;1.00;;;21.20;99.90;;;;;;4914613;29;20865;-69
2023/07/21 13:44:08;;;;;;;0.60;0.60;;;21.30;99.90;;;;;;4914444;29;20497;-69
2023/07/21 13:46:35;;;;;;;0.60;0.60;;;21.30;99.90;;;;;;4914868;29;20885;-69
2023/07/21 13:49:03;;;;;;;0.50;0.50;;;21.40;99.90;;;;;;4914935;29;20466;-69
2023/07/21 13:51:29;;;;;;;0.60;0.60;;;21.40;99.90;;;;;;4914481;29;20980;-69
2023/07/21 13:53:56;;;;;;;0.70;0.70;;;21.50;99.90;;;;;;4914936;29;20467;-69
2023/07/21 13:56:24;;;;;;;0.80;0.80;;;21.50;99.90;;;;;;4914508;29;20494;-69
2023/07/21 13:58:51;;;;;;;0.83;0.83;;;21.60;99.90;;;;;;4914595;29;20466;-69
2023/07/21 14:01:18;;;;;;;0.93;0.93;;;21.60;99.90;;;;;;4913618;29;20500;-69
2023/07/21 14:03:46;;;;;;;0.30;0.30;;;21.60;99.90;;;;;;4914994;29;20497;-70
2023/07/21 14:06:13;;;;;;;0.80;0.80;;;21.70;99.90;;;;;;4914563;29;20572;-69
2023/07/21 14:08:40;;;;;;;0.40;0.40;;;21.70;99.90;;;;;;4914797;29;20471;-69
2023/07/21 14:11:08;;;;;;;1.07;0.80;;;21.80;99.90;;;;;;4914024;29;20492;-69
2023/07/21 14:13:36;;;;;;;0.50;0.50;;;22.00;99.90;;;;;;4914702;29;20475;-70
2023/07/21 14:16:03;;;;;;;0.50;0.50;;;22.20;99.90;;;;;;4913608;29;20984;-69
2023/07/21 14:18:31;;;;;;;0.70;0.70;;;22.30;99.90;;;;;;4914906;29;20468;-69
2023/07/21 14:20:57;;;;;;;0.53;0.53;;;22.60;99.90;;;;;;4914203;29;20558;-69
2023/07/21 14:23:25;;;;;;;0.80;0.80;;;22.80;99.90;;;;;;4914451;29;20497;-69
2023/07/21 14:25:52;;;;;;;0.63;0.63;;;22.90;99.90;;;;;;4913731;29;20477;-68
2023/07/21 14:28:19;;;;;;;1.13;0.90;;;23.00;99.90;;;;;;4915702;29;20476;-69
2023/07/21 14:30:48;;;;;;;0.70;0.70;;;23.10;99.90;;;;;;4914273;29;20562;-69
2023/07/21 14:33:14;;;;;;;0.73;0.73;;;23.20;99.90;;;;;;4914315;29;20505;-69
2023/07/21 14:35:41;;;;;;;0.90;0.90;;;23.30;99.90;;;;;;4914077;29;20490;-69
2023/07/21 14:38:09;;;;;;;1.80;1.07;;;23.40;99.90;;;;;;4914302;29;20473;-69
2023/07/21 14:40:36;;;;;;;0.70;0.70;;;23.40;99.90;;;;;;4911089;29;21005;-69
2023/07/21 14:43:03;;;;;;;0.60;0.60;;;23.40;99.90;;;;;;4913949;29;20982;-68
2023/07/21 14:45:29;;;;;;;0.70;0.70;;;23.50;99.90;;;;;;4913164;29;20466;-69
2023/07/21 14:47:57;;;;;;;0.70;0.70;;;23.70;99.90;;;;;;4913982;29;20477;-69
2023/07/21 14:50:24;;;;;;;2.30;0.77;;;23.80;99.90;;;;;;4913902;29;20497;-69
2023/07/21 14:52:51;;;;;;;0.70;0.70;;;23.80;99.90;;;;;;4914162;29;20462;-69
2023/07/21 14:55:18;;;;;;;0.97;0.90;;;24.00;99.90;;;;;;4913680;29;20470;-69
2023/07/21 14:57:45;;;;;;;0.80;0.80;;;24.10;99.90;;;;;;4913801;29;20473;-69
2023/07/21 15:00:20;;;;;;;0.80;0.80;;;24.10;99.90;;;;;;4913157;29;20484;-69
2023/07/21 15:02:46;;;;;;;0.60;0.60;;;24.10;99.90;;;;;;4914313;29;20504;-69
2023/07/21 15:05:15;;;;;;;0.90;0.90;;;23.90;99.90;;;;;;4913625;29;20469;-69
2023/07/21 15:07:43;;;;;;;0.80;0.80;;;23.90;99.90;;;;;;4913910;29;20476;-69
2023/07/21 15:10:10;;;;;;;0.97;0.97;;;23.80;99.90;;;;;;4913782;29;20517;-69
2023/07/21 15:12:37;;;;;;;2.10;1.00;;;23.70;99.90;;;;;;4913765;29;20490;-69
2023/07/21 15:15:04;;;;;;;0.90;0.90;;;23.60;99.90;;;;;;4912768;29;20928;-69
2023/07/21 15:17:31;;;;;;;0.80;0.80;;;23.60;99.90;;;;;;4913723;29;20492;-69
2023/07/21 15:19:58;;;;;;;1.07;1.07;;;23.60;99.90;;;;;;4913767;29;20470;-69
2023/07/21 15:22:26;;;;;;;0.77;0.70;;;23.70;99.90;;;;;;4913554;29;20529;-69
2023/07/21 15:24:52;;;;;;;1.00;1.00;;;23.70;99.90;;;;;;4913273;29;20498;-69
2023/07/21 15:27:19;;;;;;;0.77;0.77;;;23.70;99.90;;;;;;4913659;29;20853;-69
2023/07/21 15:29:46;;;;;;;0.80;0.80;;;23.50;99.90;;;;;;4912739;29;20533;-69
2023/07/21 15:32:12;;;;;;;0.70;0.70;;;23.50;99.90;;;;;;4913926;29;20489;-69
2023/07/21 15:34:39;;;;;;;0.60;0.60;;;23.40;99.90;;;;;;4913460;29;20462;-69
2023/07/21 15:37:06;;;;;;;0.80;0.80;;;23.40;99.90;;;;;;4913877;29;20961;-68
2023/07/21 15:39:36;;;;;;;0.70;0.70;;;23.40;99.90;;;;;;4912950;29;20837;-68
2023/07/21 15:42:03;;;;;;;1.47;1.10;;;23.50;99.90;;;;;;4916742;29;20589;-68
2023/07/21 15:44:29;;;;;;;1.13;1.13;;;23.40;99.90;;;;;;4916229;29;20946;-69
2023/07/21 15:46:56;;;;;;;0.90;0.90;;;23.20;99.90;;;;;;4917076;29;20474;-69
2023/07/21 15:49:23;;;;;;;1.57;0.90;;;23.00;99.90;;;;;;4916952;29;20470;-69
2023/07/21 15:51:50;;;;;;;1.10;1.10;;;23.00;99.90;;;;;;4916836;29;20506;-69
2023/07/21 15:54:16;;;;;;;0.87;0.87;;;23.20;99.90;;;;;;4916421;29;20469;-68
2023/07/21 15:56:45;;;;;;;0.60;0.60;;;23.30;99.90;;;;;;4916760;29;20496;-69
2023/07/21 15:59:11;;;;;;;0.83;0.83;;;23.30;99.90;;;;;;4916778;29;20480;-68
2023/07/21 16:01:38;;;;;;;0.80;0.80;;;23.10;99.90;;;;;;4916571;29;20520;-69
2023/07/21 16:04:05;;;;;;;0.90;0.90;;;23.20;99.90;;;;;;4916728;29;20875;-68
2023/07/21 16:06:32;;;;;;;0.70;0.70;;;23.40;99.90;;;;;;4916672;29;20473;-68
2023/07/21 16:08:58;;;;;;;0.50;0.50;;;23.40;99.90;;;;;;4916703;29;20477;-68
2023/07/21 16:11:25;;;;;;;0.87;0.87;;;23.40;99.90;;;;;;4916800;29;20608;-69
2023/07/21 16:13:53;;;;;;;0.60;0.60;;;23.40;99.90;;;;;;4916819;29;20462;-69
2023/07/21 16:16:20;;;;;;;0.53;0.53;;;23.20;99.90;;;;;;4936747;23;20501;-70
2023/07/21 16:18:48;;;;;;;0.70;0.70;;;23.00;99.90;;;;;;4916281;29;20548;-70
2023/07/21 16:21:15;;;;;;;0.80;0.80;;;22.90;99.90;;;;;;4915771;29;20468;-69
2023/07/21 16:23:42;;;;;;;0.70;0.70;;;22.80;99.90;;;;;;4915778;29;20491;-70
2023/07/21 16:26:13;;;;;;;0.90;0.80;;;22.70;99.90;;;;;;4911657;29;20493;-70
2023/07/21 16:28:39;;;;;;;0.43;0.43;;;22.60;99.90;;;;;;4897011;29;20500;-70
2023/07/21 16:31:07;;;;;;;2.93;0.80;;;22.40;99.90;;;;;;4896368;29;20794;-70
2023/07/21 16:33:34;;;;;;;0.77;0.77;;;22.40;99.90;;;;;;4897205;29;20503;-71
2023/07/21 16:36:01;;;;;;;0.80;0.80;;;22.40;99.90;;;;;;4896630;29;20497;-70
2023/07/21 16:38:28;;;;;;;0.67;0.67;;;22.40;99.90;;;;;;4895079;29;20495;-70
2023/07/21 16:40:55;;;;;;;0.47;0.47;;;22.50;99.90;;;;;;4904404;29;20467;-70
2023/07/21 16:43:21;;;;;;;0.90;0.90;;;22.60;99.90;;;;;;4915305;29;20559;-71
2023/07/21 16:45:48;;;;;;;0.77;0.77;;;22.70;99.90;;;;;;4914969;29;20533;-70
2023/07/21 16:48:16;;;;;;;0.50;0.50;;;22.70;99.90;;;;;;4915339;29;20469;-70
2023/07/21 16:50:43;;;;;;;0.73;0.73;;;22.70;99.90;;;;;;4914176;29;20807;-70